Time;durP1;ratioP1;P1;durP2;ratioP2;P2;SDS_P1;SDS_P2;PMS_P1;PMS_P2;Temp;Humidity;BMP_temperature;BMP_pressure;BME280_temperature;BME280_humidity;BME280_pressure;Samples;Min_cycle;Max_cycle;Signal;HPM_P1;HPM_P2
2021/09/10 00:00:08;;;;;;;25.25;18.15;;;;;;;11.78;71.25;99085.77;2296015;77;20936;-80
2021/09/10 00:03:10;;;;;;;25.05;19.37;;;;;;;11.38;71.73;99088.32;2229569;78;20931;-80
2021/09/10 00:06:11;;;;;;;29.37;18.20;;;;;;;11.03;72.64;99086.52;2255730;77;20958;-80
2021/09/10 00:09:11;;;;;;;26.40;18.13;;;;;;;10.77;72.96;99090.06;2274287;78;20951;-80
2021/09/10 00:12:11;;;;;;;23.97;17.03;;;;;;;10.53;73.50;99090.14;2274838;77;20984;-80
2021/09/10 00:15:12;;;;;;;442.93;340.93;;;;;;;10.36;73.81;99093.30;2291438;77;20960;-78
2021/09/10 00:18:12;;;;;;;332.97;258.30;;;;;;;10.34;77.56;99080.66;2284000;78;21371;-79
2021/09/10 00:21:13;;;;;;;417.33;80.00;;;;;;;12.32;78.75;99080.66;2254918;77;20904;-78
2021/09/10 00:24:13;;;;;;;38.53;27.50;;;;;;;12.50;72.46;99082.55;2278164;78;20956;-80
2021/09/10 00:27:14;;;;;;;30.67;20.20;;;;;;;11.96;71.71;99087.70;2294646;77;20948;-80
2021/09/10 00:30:14;;;;;;;30.57;18.40;;;;;;;11.49;71.45;99088.02;2272183;77;20963;-79
2021/09/10 00:33:15;;;;;;;22.20;17.10;;;;;;;11.11;72.42;99082.28;2289722;77;20955;-80
2021/09/10 00:36:15;;;;;;;34.67;19.60;;;;;;;10.80;72.56;99090.98;2282280;78;21353;-79
2021/09/10 00:39:21;;;;;;;41.93;19.57;;;;;;;10.63;74.13;99089.86;2282182;78;20936;-79
2021/09/10 00:42:21;;;;;;;25.30;18.03;;;;;;;10.42;73.67;99096.05;2275695;77;21007;-79
2021/09/10 00:45:22;;;;;;;24.33;18.40;;;;;;;10.19;74.18;99095.17;2289849;77;20956;-79
2021/09/10 00:48:22;;;;;;;31.73;19.10;;;;;;;10.04;74.45;99089.68;2270247;78;20952;-80
2021/09/10 00:51:23;;;;;;;24.90;17.70;;;;;;;9.89;74.87;99094.63;2297282;77;20959;-79
2021/09/10 00:54:23;;;;;;;22.87;16.97;;;;;;;9.78;75.36;99094.84;2279677;77;20955;-79
2021/09/10 00:57:24;;;;;;;26.53;18.63;;;;;;;9.71;75.40;99090.36;2294424;77;21323;-79
2021/09/10 01:00:24;;;;;;;25.17;18.17;;;;;;;9.63;75.81;99091.52;2290883;77;21344;-80
2021/09/10 01:03:24;;;;;;;22.43;19.10;;;;;;;9.56;75.84;99084.01;2294856;77;21011;-79
2021/09/10 01:06:25;;;;;;;27.53;18.70;;;;;;;9.56;76.63;99085.31;2269791;78;20940;-79
2021/09/10 01:09:26;;;;;;;22.43;18.53;;;;;;;9.52;76.49;99080.86;2272512;78;20972;-79
2021/09/10 01:12:26;;;;;;;31.70;19.07;;;;;;;9.48;76.39;99090.77;2282765;77;20983;-79
2021/09/10 01:15:27;;;;;;;24.93;16.80;;;;;;;9.43;76.57;99089.80;2277233;78;20983;-79
2021/09/10 01:18:27;;;;;;;20.70;16.70;;;;;;;9.38;76.31;99093.16;2283691;78;21378;-79
2021/09/10 01:21:28;;;;;;;26.30;19.10;;;;;;;9.31;76.57;99091.27;2283552;77;20974;-79
2021/09/10 01:24:28;;;;;;;25.17;18.00;;;;;;;9.25;77.32;99089.42;2277527;77;20995;-79
2021/09/10 01:27:29;;;;;;;27.40;19.03;;;;;;;9.23;77.23;99084.59;2258560;78;20936;-80
2021/09/10 01:30:30;;;;;;;31.73;18.20;;;;;;;9.21;77.41;99086.30;2290627;78;20959;-79
2021/09/10 01:33:30;;;;;;;28.23;18.97;;;;;;;9.25;77.63;99082.91;2266413;78;20937;-79
2021/09/10 01:36:31;;;;;;;25.70;19.03;;;;;;;9.23;77.68;99084.59;2286154;78;20983;-79
2021/09/10 01:39:31;;;;;;;29.57;18.67;;;;;;;9.17;77.68;99084.05;2297888;77;20928;-80
2021/09/10 01:42:32;;;;;;;27.33;19.43;;;;;;;9.09;77.65;99079.10;2284569;77;20967;-80
2021/09/10 01:45:32;;;;;;;23.17;17.83;;;;;;;9.07;77.94;99078.19;2273422;78;21316;-80
2021/09/10 01:48:33;;;;;;;23.17;17.27;;;;;;;9.05;77.51;99080.30;2297314;77;20991;-80
2021/09/10 01:51:33;;;;;;;30.97;24.30;;;;;;;9.04;77.83;99082.03;2278243;77;20986;-79
2021/09/10 01:54:34;;;;;;;178.97;134.67;;;;;;;9.17;81.50;99085.77;2282402;77;20961;-79
2021/09/10 01:57:34;;;;;;;61.63;43.50;;;;;;;11.26;83.26;99074.64;2266471;78;21018;-79
2021/09/10 02:00:35;;;;;;;30.67;22.53;;;;;;;11.98;75.18;99073.77;2284821;78;20955;-78
2021/09/10 02:03:35;;;;;;;25.23;18.27;;;;;;;11.30;73.28;99084.30;2258824;78;21500;-79
2021/09/10 02:06:36;;;;;;;23.80;17.63;;;;;;;10.73;73.46;99089.14;2250132;78;20924;-79
2021/09/10 02:09:36;;;;;;;22.67;17.73;;;;;;;10.33;73.86;99084.12;2283982;77;21000;-79
2021/09/10 02:12:37;;;;;;;24.43;17.47;;;;;;;10.04;74.36;99087.08;2257910;77;20947;-79
2021/09/10 02:15:37;;;;;;;25.07;17.30;;;;;;;9.82;74.67;99087.53;2294726;77;20956;-76
2021/09/10 02:18:38;;;;;;;210.27;33.03;;;;;;;9.67;75.47;99081.61;2289029;77;21011;-78
2021/09/10 02:21:38;;;;;;;23.13;16.93;;;;;;;9.57;75.94;99079.67;2281299;77;20987;-79
2021/09/10 02:24:39;;;;;;;26.60;17.90;;;;;;;9.45;76.27;99080.28;2269414;77;20986;-79
2021/09/10 02:27:39;;;;;;;22.00;17.07;;;;;;;9.35;76.51;99091.79;2297661;77;20956;-79
2021/09/10 02:30:40;;;;;;;25.23;17.37;;;;;;;9.24;76.90;99087.23;2288958;77;20957;-79
2021/09/10 02:33:40;;;;;;;274.57;203.43;;;;;;;9.17;77.04;99083.17;2265236;77;20924;-78
2021/09/10 02:36:41;;;;;;;96.30;72.53;;;;;;;10.31;83.54;99084.52;2266840;77;21423;-83
2021/09/10 02:39:41;;;;;;;39.00;26.87;;;;;;;12.47;77.77;99078.59;2278585;78;20951;-83
2021/09/10 02:42:42;;;;;;;30.13;21.00;;;;;;;12.04;73.12;99082.99;2268039;77;20955;-82
2021/09/10 02:45:42;;;;;;;29.90;19.33;;;;;;;11.39;72.78;99085.73;2261394;78;21119;-81
2021/09/10 02:48:43;;;;;;;26.97;17.90;;;;;;;10.95;73.08;99079.01;2272801;78;20996;-81
2021/09/10 02:51:43;;;;;;;22.87;17.40;;;;;;;10.56;73.62;99080.17;2271924;77;20959;-80
2021/09/10 02:54:44;;;;;;;20.50;16.23;;;;;;;10.31;74.01;99074.08;2293370;77;21360;-80
2021/09/10 02:57:44;;;;;;;23.90;16.83;;;;;;;10.08;74.52;99077.58;2289679;77;20947;-80
2021/09/10 03:00:45;;;;;;;24.63;17.03;;;;;;;9.89;75.05;99078.98;2294420;78;20953;-80
2021/09/10 03:03:45;;;;;;;19.67;14.90;;;;;;;9.76;75.58;99075.69;2277126;77;20956;-80
2021/09/10 03:06:46;;;;;;;82.67;19.80;;;;;;;9.63;75.26;99078.91;2290682;77;20960;-80
2021/09/10 03:09:46;;;;;;;24.60;16.07;;;;;;;9.45;75.59;99080.28;2274047;78;21328;-80
2021/09/10 03:12:47;;;;;;;23.67;15.93;;;;;;;9.38;76.08;99082.73;2278102;78;20956;-81
2021/09/10 03:15:47;;;;;;;22.90;15.50;;;;;;;9.29;76.30;99081.24;2267987;77;20943;-80
2021/09/10 03:18:48;;;;;;;19.97;14.73;;;;;;;9.21;76.23;99078.48;2270479;78;21069;-81
2021/09/10 03:21:48;;;;;;;20.13;15.23;;;;;;;9.08;76.10;99081.67;2248875;78;21034;-81
2021/09/10 03:24:49;;;;;;;25.97;16.67;;;;;;;9.00;76.50;99082.81;2266598;77;20971;-79
2021/09/10 03:27:49;;;;;;;25.40;16.10;;;;;;;8.99;77.54;99086.68;2284424;78;20947;-79
2021/09/10 03:30:50;;;;;;;99.60;82.23;;;;;;;8.98;77.72;99081.02;2282001;77;21003;-79
2021/09/10 03:33:50;;;;;;;431.53;323.13;;;;;;;9.07;80.90;99077.31;2276608;77;20929;-79
2021/09/10 03:36:51;;;;;;;81.87;58.87;;;;;;;11.95;81.74;99075.48;2280355;77;21054;-79
2021/09/10 03:39:52;;;;;;;39.07;28.43;;;;;;;12.88;74.48;99065.80;2275987;78;21320;-80
2021/09/10 03:42:52;;;;;;;30.93;21.93;;;;;;;12.19;72.97;99070.52;2275534;77;21015;-80
2021/09/10 03:45:52;;;;;;;128.53;27.90;;;;;;;11.63;73.06;99069.45;2261934;78;20952;-80
2021/09/10 03:48:53;;;;;;;28.20;18.80;;;;;;;11.20;73.67;99073.25;2256055;78;20958;-79
2021/09/10 03:51:54;;;;;;;29.47;17.70;;;;;;;10.85;74.33;99080.19;2273351;78;21184;-79
2021/09/10 03:54:54;;;;;;;55.70;20.80;;;;;;;10.60;74.88;99081.98;2282332;77;20980;-79
2021/09/10 03:57:55;;;;;;;55.67;21.57;;;;;;;10.39;75.35;99076.39;2288314;77;21324;-77
2021/09/10 04:00:55;;;;;;;25.37;19.03;;;;;;;10.23;75.96;99075.69;2263104;78;21101;-78
2021/09/10 04:03:56;;;;;;;31.83;20.37;;;;;;;10.10;76.62;99074.56;2261014;78;20963;-79
2021/09/10 04:06:56;;;;;;;32.53;19.80;;;;;;;9.98;76.78;99080.44;2282976;78;20979;-80
2021/09/10 04:09:57;;;;;;;32.90;19.77;;;;;;;9.89;77.44;99082.89;2276481;77;20955;-79
2021/09/10 04:12:58;;;;;;;29.50;20.23;;;;;;;9.82;77.56;99082.32;2288610;77;21043;-79
2021/09/10 04:15:58;;;;;;;29.07;20.10;;;;;;;9.79;78.03;99079.66;2295178;77;20991;-79
2021/09/10 04:18:59;;;;;;;40.83;26.93;;;;;;;9.78;78.44;99077.90;2271020;78;20956;-81
2021/09/10 04:21:59;;;;;;;49.67;23.00;;;;;;;9.75;78.12;99078.72;2253845;77;21023;-80
2021/09/10 04:24:59;;;;;;;29.03;19.53;;;;;;;9.72;78.58;99081.27;2277142;77;21320;-79
2021/09/10 04:28:00;;;;;;;22.50;19.07;;;;;;;9.73;78.50;99080.84;2248352;78;20975;-80
2021/09/10 04:31:01;;;;;;;25.93;19.57;;;;;;;9.72;78.62;99079.97;2292836;77;20941;-79
2021/09/10 04:34:01;;;;;;;27.10;18.53;;;;;;;9.75;78.79;99077.84;2290785;77;20948;-80
2021/09/10 04:37:02;;;;;;;27.03;18.03;;;;;;;9.77;78.61;99082.66;2280778;77;21339;-82
2021/09/10 04:40:02;;;;;;;41.10;20.50;;;;;;;9.78;78.56;99084.42;2261438;78;20954;-80
2021/09/10 04:43:03;;;;;;;78.93;20.40;;;;;;;9.80;78.40;99078.80;2275997;77;20979;-79
2021/09/10 04:46:03;;;;;;;26.37;18.20;;;;;;;9.83;78.34;99077.56;2291181;77;20952;-80
2021/09/10 04:49:04;;;;;;;24.10;17.87;;;;;;;9.83;78.23;99084.95;2270983;77;20943;-79
2021/09/10 04:52:04;;;;;;;33.57;19.17;;;;;;;9.84;78.14;99080.63;2279353;77;20984;-79
2021/09/10 04:55:05;;;;;;;26.87;17.70;;;;;;;9.87;78.42;99080.67;2274980;78;21638;-80
2021/09/10 04:58:05;;;;;;;25.83;17.20;;;;;;;9.98;78.44;99083.48;2292923;77;20948;-79
2021/09/10 05:01:06;;;;;;;32.17;23.47;;;;;;;10.06;78.08;99089.28;2290929;77;21018;-80
2021/09/10 05:04:06;;;;;;;37.70;27.43;;;;;;;10.17;78.06;99090.34;2271166;77;21210;-80
2021/09/10 05:07:07;;;;;;;28.77;18.40;;;;;;;10.20;78.07;99091.73;2266079;77;20936;-80
2021/09/10 05:10:07;;;;;;;34.17;17.53;;;;;;;10.27;78.08;99094.02;2295736;77;21034;-80
2021/09/10 05:13:08;;;;;;;33.83;18.27;;;;;;;10.36;78.11;99091.99;2272681;77;20951;-79
2021/09/10 05:16:09;;;;;;;28.47;17.27;;;;;;;10.48;78.33;99091.80;2274134;78;21327;-79
2021/09/10 05:19:09;;;;;;;24.50;16.70;;;;;;;10.65;78.16;99091.19;2288975;78;21357;-82
2021/09/10 05:22:10;;;;;;;35.90;17.50;;;;;;;10.79;78.01;99094.88;2273662;77;20988;-82
2021/09/10 05:25:10;;;;;;;23.67;17.10;;;;;;;11.00;78.16;99095.63;2261462;78;20953;-79
2021/09/10 05:28:11;;;;;;;27.63;16.57;;;;;;;11.14;77.87;99096.26;2266294;77;20952;-78
2021/09/10 05:31:11;;;;;;;22.75;15.53;;;;;;;11.25;77.92;99095.09;2275027;77;21366;-82
2021/09/10 05:34:12;;;;;;;88.10;22.32;;;;;;;11.43;77.90;99092.75;2248421;78;20990;-79
2021/09/10 05:37:13;;;;;;;26.85;16.87;;;;;;;11.62;77.67;99089.05;2254377;77;20962;-79
2021/09/10 05:40:13;;;;;;;21.75;16.65;;;;;;;11.84;77.76;99089.77;2269015;77;20916;-82
2021/09/10 05:43:14;;;;;;;26.25;17.12;;;;;;;12.07;77.72;99092.61;2274326;77;20944;-78
2021/09/10 05:46:14;;;;;;;43.40;17.10;;;;;;;12.28;77.77;99098.51;2285254;77;20900;-79
2021/09/10 05:49:15;;;;;;;22.05;16.20;;;;;;;12.53;77.61;99096.54;2288876;77;20937;-78
2021/09/10 05:52:16;;;;;;;33.75;17.37;;;;;;;12.79;77.57;99099.36;2250724;78;20983;-80
2021/09/10 05:55:16;;;;;;;143.85;24.52;;;;;;;12.86;76.98;99095.03;2272628;77;20963;-80
2021/09/10 05:58:17;;;;;;;27.07;13.83;;;;;;;13.14;76.94;99096.11;2273667;78;20935;-79
2021/09/10 06:01:17;;;;;;;75.45;18.27;;;;;;;13.47;76.18;99095.43;2248181;78;20952;-81
2021/09/10 06:04:18;;;;;;;19.75;14.43;;;;;;;13.83;76.22;99099.49;2289490;77;21348;-81
2021/09/10 06:07:18;;;;;;;64.07;16.85;;;;;;;14.18;76.25;99096.97;2251482;78;20963;-79
2021/09/10 06:10:19;;;;;;;29.55;13.40;;;;;;;14.49;75.63;99103.16;2259985;78;20991;-80
2021/09/10 06:13:19;;;;;;;20.62;13.18;;;;;;;14.80;74.12;99107.13;2266418;77;21132;-79
2021/09/10 06:16:19;;;;;;;16.62;12.75;;;;;;;15.11;73.45;99102.69;2276102;78;20943;-81
2021/09/10 06:19:20;;;;;;;18.82;11.57;;;;;;;15.42;73.52;99102.16;2251206;77;20948;-81
2021/09/10 06:22:24;;;;;;;17.23;11.05;;;;;;;15.70;72.32;99102.55;2267382;77;21048;-78
2021/09/10 06:25:24;;;;;;;15.10;11.63;;;;;;;15.99;71.53;99101.08;2263859;78;20983;-80
2021/09/10 06:28:25;;;;;;;23.02;11.50;;;;;;;16.32;70.87;99106.56;2295055;77;21331;-80
2021/09/10 06:31:25;;;;;;;17.05;10.75;;;;;;;16.65;70.37;99108.13;2283604;77;20967;-80
2021/09/10 06:34:26;;;;;;;14.73;11.00;;;;;;;16.94;68.93;99107.88;2264401;77;20936;-80
2021/09/10 06:37:27;;;;;;;22.07;10.58;;;;;;;17.16;67.68;99112.04;2275788;77;20952;-79
2021/09/10 06:40:27;;;;;;;26.87;10.45;;;;;;;17.42;66.58;99106.52;2256076;78;20963;-79
2021/09/10 06:43:28;;;;;;;15.80;9.60;;;;;;;17.70;66.77;99109.72;2285596;78;20977;-80
2021/09/10 06:46:28;;;;;;;16.45;9.80;;;;;;;17.98;65.93;99113.32;2185981;80;20948;-80
2021/09/10 06:49:29;;;;;;;13.48;9.10;;;;;;;18.24;65.17;99119.14;2201062;80;21690;-79
2021/09/10 06:52:29;;;;;;;12.85;9.00;;;;;;;18.46;63.82;99121.88;2234336;79;20987;-80
2021/09/10 06:55:30;;;;;;;425.30;40.45;;;;;;;18.61;63.55;99123.86;2182011;81;20998;-79
2021/09/10 06:58:30;;;;;;;29.72;9.68;;;;;;;18.86;62.91;99119.07;2176729;80;20960;-80
2021/09/10 07:01:32;;;;;;;21.50;9.35;;;;;;;18.99;62.66;99122.80;2182969;80;21003;-79
2021/09/10 07:04:32;;;;;;;17.77;8.75;;;;;;;19.22;62.53;99125.05;2191421;80;21304;-80
2021/09/10 07:07:33;;;;;;;18.15;9.65;;;;;;;19.48;61.29;99133.83;2190026;80;21007;-81
2021/09/10 07:10:33;;;;;;;21.73;8.75;;;;;;;19.68;59.11;99127.72;2197262;80;20972;-80
2021/09/10 07:13:34;;;;;;;13.13;7.58;;;;;;;19.89;58.14;99133.47;2193542;80;20967;-78
2021/09/10 07:16:34;;;;;;;10.75;7.47;;;;;;;20.11;59.36;99134.78;2199987;80;20954;-78
2021/09/10 07:19:35;;;;;;;12.40;7.30;;;;;;;20.42;58.39;99138.09;2195996;80;21383;-78
2021/09/10 07:22:36;;;;;;;18.32;7.55;;;;;;;20.70;57.47;99136.53;2180486;80;20948;-80
2021/09/10 07:25:36;;;;;;;52.23;9.90;;;;;;;20.92;55.48;99134.25;2190987;80;20937;-81
2021/09/10 07:28:37;;;;;;;15.35;7.70;;;;;;;21.12;54.34;99130.63;2189471;80;21364;-81
2021/09/10 07:31:38;;;;;;;23.65;10.13;;;;;;;21.17;51.88;99130.50;2193123;80;20995;-80
2021/09/10 07:34:38;;;;;;;19.48;9.13;;;;;;;21.27;51.24;99128.05;2197385;80;20991;-80
2021/09/10 07:37:40;;;;;;;29.35;13.38;;;;;;;21.44;51.26;99127.59;2199905;80;20980;-80
2021/09/10 07:40:41;;;;;;;26.65;9.98;;;;;;;21.56;51.44;99126.80;2205546;80;21333;-83
2021/09/10 07:43:41;;;;;;;27.67;13.18;;;;;;;21.76;50.57;99126.72;2290984;77;20925;-80
2021/09/10 07:46:43;;;;;;;21.17;9.85;;;;;;;21.90;48.54;99128.52;2247789;78;21288;-79
2021/09/10 07:49:44;;;;;;;30.30;14.30;;;;;;;21.98;49.56;99131.81;2248614;78;21042;-81
2021/09/10 07:52:44;;;;;;;126.25;21.68;;;;;;;22.12;49.31;99132.30;2272108;77;21007;-80
2021/09/10 07:55:45;;;;;;;26.37;13.28;;;;;;;22.29;49.07;99138.90;2260932;78;20943;-80
2021/09/10 07:58:45;;;;;;;203.80;24.05;;;;;;;22.44;49.04;99137.95;2288358;77;21285;-81
2021/09/10 08:01:46;;;;;;;51.18;11.73;;;;;;;22.63;48.29;99138.27;2260943;77;20951;-79
2021/09/10 08:07:49;;;;;;;31.15;7.00;;;;;;;22.97;47.41;99142.06;2246973;77;21019;-80
2021/09/10 08:10:50;;;;;;;11.18;5.87;;;;;;;23.09;46.67;99147.42;2194014;80;21343;-79
2021/09/10 08:13:50;;;;;;;11.20;5.00;;;;;;;23.24;46.47;99147.36;2187010;80;21011;-80
2021/09/10 08:16:51;;;;;;;8.43;4.47;;;;;;;23.37;44.55;99141.55;2186138;80;20960;-81
2021/09/10 08:19:51;;;;;;;10.08;4.70;;;;;;;23.49;45.54;99146.48;2198137;80;21350;-81
2021/09/10 08:22:52;;;;;;;10.23;4.78;;;;;;;23.68;44.36;99143.19;2191514;80;21056;-80
2021/09/10 08:25:52;;;;;;;19.10;6.67;;;;;;;23.79;42.72;99138.33;2184562;80;21142;-80
2021/09/10 08:28:53;;;;;;;6.17;3.90;;;;;;;23.87;43.81;99138.04;2205390;80;20940;-80
2021/09/10 08:31:53;;;;;;;5.75;3.55;;;;;;;23.90;40.92;99140.13;2202807;80;21004;-81
2021/09/10 08:34:54;;;;;;;9.65;4.30;;;;;;;23.88;40.76;99139.31;2200480;81;20988;-80
2021/09/10 08:37:56;;;;;;;6.60;3.67;;;;;;;24.03;41.04;99137.41;2187786;80;21368;-80
2021/09/10 08:40:57;;;;;;;8.50;3.70;;;;;;;24.05;40.15;99141.34;2224094;80;21030;-82
2021/09/10 08:43:57;;;;;;;5.95;3.40;;;;;;;24.06;40.81;99141.75;2185048;80;20952;-79
2021/09/10 08:46:58;;;;;;;10.93;3.90;;;;;;;24.21;40.10;99145.63;2204673;80;21395;-79
2021/09/10 08:49:58;;;;;;;18.95;4.83;;;;;;;24.12;39.58;99143.72;2180785;80;21395;-82
2021/09/10 08:52:59;;;;;;;7.87;4.20;;;;;;;24.19;40.23;99140.81;2183474;80;21042;-80
2021/09/10 08:55:59;;;;;;;8.93;3.90;;;;;;;24.39;39.65;99140.50;2176881;80;20971;-79
2021/09/10 08:59:00;;;;;;;13.78;4.25;;;;;;;24.52;39.10;99138.22;2206749;80;21003;-80
2021/09/10 09:02:00;;;;;;;10.23;4.35;;;;;;;24.64;38.40;99134.19;2185061;80;20983;-79
2021/09/10 09:05:01;;;;;;;12.40;4.20;;;;;;;24.65;38.12;99136.80;2192336;80;21339;-80
2021/09/10 09:08:01;;;;;;;5.28;3.75;;;;;;;24.76;38.49;99137.22;2207470;80;20985;-80
2021/09/10 09:11:02;;;;;;;;;;;;;;;;;;;;;
2021/09/10 09:14:04;;;;;;;18.67;5.55;;;;;;;24.95;36.27;99129.78;2180260;80;20964;-81
2021/09/10 09:17:04;;;;;;;8.25;4.08;;;;;;;24.94;35.76;99116.89;2290558;77;21308;-80
2021/09/10 09:20:05;;;;;;;14.15;4.20;;;;;;;24.88;33.62;99120.29;2256928;77;20967;-81
2021/09/10 09:23:06;;;;;;;10.78;3.45;;;;;;;24.95;34.12;99112.42;2201346;80;21347;-82
2021/09/10 09:29:08;;;;;;;10.93;3.33;;;;;;;25.14;34.17;99113.41;2159535;80;20996;-82
2021/09/10 09:32:09;;;;;;;6.72;3.40;;;;;;;25.25;32.15;99113.84;2205241;80;21285;-81
2021/09/10 09:35:09;;;;;;;24.05;4.95;;;;;;;25.30;33.68;99117.19;2198663;80;20991;-80
2021/09/10 09:41:12;;;;;;;9.08;3.33;;;;;;;25.46;32.74;99115.17;2156739;81;20979;-81
2021/09/10 09:44:13;;;;;;;12.45;3.65;;;;;;;25.52;32.19;99121.58;2190390;80;21011;-82
2021/09/10 09:47:14;;;;;;;7.37;3.33;;;;;;;25.47;32.84;99112.91;2179410;80;21014;-82
2021/09/10 09:50:15;;;;;;;4.37;3.00;;;;;;;25.56;31.31;99115.16;2176653;80;20974;-81
2021/09/10 09:53:15;;;;;;;13.20;4.45;;;;;;;25.59;32.11;99116.36;2194300;80;21106;-82
2021/09/10 09:56:16;;;;;;;7.47;3.70;;;;;;;25.69;31.53;99112.38;2263733;78;20968;-81
2021/09/10 09:59:16;;;;;;;17.75;4.22;;;;;;;25.60;30.12;99108.75;2179485;80;20987;-81
2021/09/10 10:05:19;;;;;;;6.72;3.47;;;;;;;25.71;30.60;99107.82;2202429;79;21439;-79
2021/09/10 10:08:21;;;;;;;11.35;3.40;;;;;;;25.76;30.32;99112.96;2201099;80;22041;-78
2021/09/10 10:11:21;;;;;;;7.85;3.70;;;;;;;25.84;30.07;99114.81;2165913;80;21007;-80
2021/09/10 10:14:22;;;;;;;4.83;3.37;;;;;;;25.95;30.30;99108.03;2175853;80;21455;-82
2021/09/10 10:17:22;;;;;;;10.88;4.40;;;;;;;25.96;29.86;99108.42;2190343;80;20991;-80
2021/09/10 10:20:23;;;;;;;10.10;3.80;;;;;;;26.12;29.76;99113.09;2174899;80;21011;-80
2021/09/10 10:23:23;;;;;;;6.83;3.72;;;;;;;26.19;30.09;99105.17;2172253;80;21067;-82
2021/09/10 10:29:26;;;;;;;6.93;3.90;;;;;;;26.37;29.29;99099.45;2240925;77;20925;-81
2021/09/10 10:32:26;;;;;;;12.33;4.05;;;;;;;26.36;29.84;99099.05;2291211;77;21312;-81
2021/09/10 10:35:27;;;;;;;7.70;3.65;;;;;;;26.49;29.22;99111.77;2290626;78;21324;-80
2021/09/10 10:38:28;;;;;;;8.03;3.47;;;;;;;26.58;29.16;99103.75;2247792;78;20947;-81
2021/09/10 10:41:28;;;;;;;8.90;3.60;;;;;;;26.65;28.82;99099.36;2248485;78;20951;-81
2021/09/10 10:44:28;;;;;;;7.17;3.75;;;;;;;26.71;28.42;99091.96;2285888;78;20959;-80
2021/09/10 10:47:29;;;;;;;14.58;3.77;;;;;;;26.71;27.16;99090.62;2257602;78;20923;-80
2021/09/10 10:50:29;;;;;;;30.92;4.05;;;;;;;26.68;27.85;99092.11;2292221;78;20991;-82
2021/09/10 10:53:30;;;;;;;12.58;3.58;;;;;;;26.72;27.15;99085.19;2256546;78;21504;-82
2021/09/10 10:56:35;;;;;;;6.25;2.90;;;;;;;26.65;27.29;99089.98;2199670;81;20940;-82
2021/09/10 10:59:33;;;;;;;5.90;3.77;;;;;;;26.69;27.67;99085.81;2194125;81;21007;-82
2021/09/10 11:02:37;;;;;;;14.00;4.40;;;;;;;26.64;26.88;99085.57;2187204;80;21029;-80
2021/09/10 11:05:37;;;;;;;7.37;2.98;;;;;;;26.64;27.77;99073.52;2194522;80;20944;-81
2021/09/10 11:08:40;;;;;;;12.40;4.00;;;;;;;26.70;27.97;99068.81;2201658;80;21333;-80
2021/09/10 11:11:40;;;;;;;18.27;4.23;;;;;;;26.73;28.65;99072.67;2191018;80;21078;-79
2021/09/10 11:14:42;;;;;;;13.30;4.58;;;;;;;26.75;27.96;99075.66;2205426;80;20964;-80
2021/09/10 11:17:43;;;;;;;6.00;3.70;;;;;;;26.81;27.82;99079.37;2198665;80;21368;-81
2021/09/10 11:20:44;;;;;;;4.42;3.40;;;;;;;26.83;27.69;99076.62;2185510;80;20976;-81
2021/09/10 11:23:47;;;;;;;3.58;3.00;;;;;;;26.85;28.01;99072.05;2275144;77;21040;-80
2021/09/10 11:26:47;;;;;;;15.08;4.80;;;;;;;26.90;27.97;99066.02;2248715;78;20924;-81
2021/09/10 11:29:48;;;;;;;11.90;3.40;;;;;;;26.95;28.54;99067.98;2290469;77;20952;-82
2021/09/10 11:32:49;;;;;;;13.72;3.90;;;;;;;26.97;27.75;99056.72;2206195;81;21491;-83
2021/09/10 11:35:49;;;;;;;8.25;3.80;;;;;;;26.97;27.78;99062.08;2166018;81;21311;-81
2021/09/10 11:38:50;;;;;;;16.02;3.85;;;;;;;27.05;28.01;99055.02;2199913;80;21400;-80
2021/09/10 11:41:50;;;;;;;149.55;16.80;;;;;;;27.08;28.35;99040.99;2199532;80;20994;-79
2021/09/10 11:44:51;;;;;;;8.00;3.52;;;;;;;27.06;27.60;99038.86;2205657;80;20968;-81
2021/09/10 11:47:51;;;;;;;8.95;3.90;;;;;;;26.97;27.88;99043.33;2179977;80;20975;-80
2021/09/10 11:50:52;;;;;;;7.78;3.77;;;;;;;26.98;28.47;99041.08;2192219;80;21015;-82
2021/09/10 11:53:56;;;;;;;5.03;3.35;;;;;;;26.98;27.75;99039.73;2169285;80;21416;-81
2021/09/10 11:56:57;;;;;;;9.23;4.40;;;;;;;26.98;28.10;99038.40;2232757;79;20987;-81
2021/09/10 11:59:58;;;;;;;17.75;4.90;;;;;;;26.94;27.43;99028.75;2277901;78;20996;-81
2021/09/10 12:02:58;;;;;;;16.95;3.87;;;;;;;26.95;28.42;99030.48;2276951;77;20972;-82
2021/09/10 12:05:59;;;;;;;15.98;4.78;;;;;;;26.99;26.65;99022.72;2280329;78;21122;-84
2021/09/10 12:09:00;;;;;;;5.25;3.40;;;;;;;26.98;28.30;99022.33;2191415;81;21024;-83
2021/09/10 12:12:00;;;;;;;4.22;3.80;;;;;;;26.96;28.56;99020.17;2181817;80;21370;-82
2021/09/10 12:15:02;;;;;;;8.15;3.92;;;;;;;26.97;28.13;99025.92;2213370;79;20956;-78
2021/09/10 12:18:02;;;;;;;10.58;3.83;;;;;;;27.00;28.05;99017.75;2178113;80;21014;-79
2021/09/10 12:21:03;;;;;;;13.50;3.55;;;;;;;27.01;27.07;99015.94;2194074;80;21008;-84
2021/09/10 12:24:03;;;;;;;6.92;3.67;;;;;;;27.01;26.72;99016.81;2203257;80;20977;-83
2021/09/10 12:27:05;;;;;;;4.53;4.10;;;;;;;26.91;27.23;99018.20;2195152;80;20977;-83
2021/09/10 12:30:05;;;;;;;8.55;4.65;;;;;;;26.86;27.95;99013.05;2183924;80;20970;-84
2021/09/10 12:33:06;;;;;;;4.35;3.95;;;;;;;26.88;27.90;99013.00;2174397;80;20972;-82
2021/09/10 12:36:07;;;;;;;7.30;4.35;;;;;;;26.86;27.89;99013.05;2207825;80;21011;-82
2021/09/10 12:39:08;;;;;;;5.28;3.75;;;;;;;26.84;27.65;99011.39;2192794;80;21036;-82
2021/09/10 12:42:08;;;;;;;8.20;5.35;;;;;;;26.87;28.21;99012.10;2207474;80;20996;-82
2021/09/10 12:45:09;;;;;;;15.83;6.00;;;;;;;26.80;27.96;99013.84;2206615;80;21028;-82
2021/09/10 12:48:10;;;;;;;13.80;5.80;;;;;;;26.83;28.18;99008.33;2291063;77;21004;-82
2021/09/10 12:51:10;;;;;;;10.20;4.50;;;;;;;26.88;28.54;98996.94;2291677;78;20972;-82
2021/09/10 12:54:11;;;;;;;6.40;4.30;;;;;;;26.89;28.00;99002.69;2197639;80;21363;-82
2021/09/10 12:57:11;;;;;;;4.92;4.20;;;;;;;26.88;28.09;98994.25;2187415;80;20944;-82
2021/09/10 13:00:12;;;;;;;8.15;5.00;;;;;;;26.91;27.73;99000.79;2223183;79;20955;-83
2021/09/10 13:03:12;;;;;;;7.78;4.22;;;;;;;26.88;27.75;99001.81;2186362;81;20991;-82
2021/09/10 13:06:13;;;;;;;8.65;4.05;;;;;;;26.85;27.93;98996.59;2234931;79;20995;-82
2021/09/10 13:09:15;;;;;;;25.88;6.60;;;;;;;26.91;28.13;98986.06;2195582;81;21368;-82
2021/09/10 13:12:22;;;;;;;5.08;4.12;;;;;;;26.87;28.71;98993.83;2232173;79;20991;-82
2021/09/10 13:15:24;;;;;;;9.28;4.00;;;;;;;26.85;27.80;98986.34;2204729;80;21348;-84
2021/09/10 13:18:24;;;;;;;4.60;3.22;;;;;;;26.87;28.10;98988.47;2269862;78;20955;-82
2021/09/10 13:21:25;;;;;;;6.25;3.75;;;;;;;26.88;27.58;98984.41;2294025;77;21029;-82
2021/09/10 13:24:25;;;;;;;7.85;3.92;;;;;;;26.86;27.21;98987.61;2248245;78;20975;-82
2021/09/10 13:27:26;;;;;;;6.62;4.22;;;;;;;26.90;27.59;98993.70;2278290;78;20956;-81
2021/09/10 13:30:26;;;;;;;17.30;4.35;;;;;;;26.83;27.60;98988.23;2280297;77;21379;-82
2021/09/10 13:33:27;;;;;;;24.35;6.03;;;;;;;26.84;27.24;98998.00;2199400;80;20975;-83
2021/09/10 13:36:27;;;;;;;14.13;4.17;;;;;;;26.78;27.94;98995.64;2180699;80;20959;-83
2021/09/10 13:39:28;;;;;;;9.25;4.80;;;;;;;26.82;26.63;98998.56;2176008;80;20968;-82
2021/09/10 13:42:28;;;;;;;8.15;4.20;;;;;;;26.83;26.86;98995.80;2173849;80;21000;-82
2021/09/10 13:45:29;;;;;;;9.48;5.10;;;;;;;26.91;27.46;98986.06;2182789;80;20989;-81
2021/09/10 13:48:29;;;;;;;6.12;4.15;;;;;;;26.88;26.71;98988.90;2187601;80;21344;-82
2021/09/10 13:51:30;;;;;;;10.03;4.80;;;;;;;26.83;27.34;98988.23;2204827;80;21031;-81
2021/09/10 13:54:31;;;;;;;8.13;3.95;;;;;;;26.81;27.78;98981.63;2176363;80;20968;-82
2021/09/10 13:57:31;;;;;;;14.53;4.78;;;;;;;26.90;27.96;98989.69;2196755;80;20993;-83
2021/09/10 14:00:32;;;;;;;5.45;3.60;;;;;;;26.83;27.47;98979.73;2198466;80;20964;-81
2021/09/10 14:03:32;;;;;;;9.18;3.92;;;;;;;26.79;27.83;98988.00;2183811;80;21071;-84
2021/09/10 14:06:33;;;;;;;6.28;4.00;;;;;;;26.73;27.19;98989.66;2229635;79;20955;-82
2021/09/10 14:09:33;;;;;;;5.15;3.80;;;;;;;26.68;27.19;98989.03;2247396;79;20974;-82
2021/09/10 14:12:34;;;;;;;10.68;3.98;;;;;;;26.63;27.63;98985.25;2239683;79;20951;-82